Time,TemperatureF,DewpointF,PressureIn,WindDirection,WindDirectionDegrees,WindSpeedMPH,WindSpeedGustMPH,Humidity,HourlyPrecipIn,Conditions,Clouds,dailyrainin,SolarRadiationWatts/m^2,SoftwareType,DateUTC
2013-01-23 00:22:00,64.0,18.0,-100.00,ENE,73,8.0,14.0,17,0.00,,,0.00,0.000000,,2013-01-23 08:22:00,
2013-01-23 00:42:00,64.0,18.0,-100.00,ENE,73,8.0,14.0,17,0.00,,,0.00,0.000000,,2013-01-23 08:42:00,
2013-01-23 00:51:00,65.0,18.0,-100.00,ENE,71,9.0,11.0,16,0.00,,,0.00,0.000000,,2013-01-23 08:51:00,
2013-01-23 01:12:00,65.0,18.0,-100.00,ENE,71,9.0,11.0,16,0.00,,,0.00,0.000000,,2013-01-23 09:12:00,
2013-01-23 01:22:00,65.0,18.0,-100.00,ENE,71,9.0,11.0,16,0.00,,,0.00,0.000000,,2013-01-23 09:22:00,
2013-01-23 01:32:00,65.0,18.0,-100.00,ENE,71,9.0,11.0,16,0.00,,,0.00,0.000000,,2013-01-23 09:32:00,
2013-01-23 01:43:00,65.0,18.0,-100.00,ENE,71,9.0,11.0,16,0.00,,,0.00,0.000000,,2013-01-23 09:43:00,
2013-01-23 02:12:00,67.0,18.0,-100.00,ENE,65,7.0,11.0,15,0.00,,,0.00,0.000000,,2013-01-23 10:12:00,
2013-01-23 02:22:00,67.0,18.0,-100.00,ENE,65,7.0,11.0,15,0.00,,,0.00,0.000000,,2013-01-23 10:22:00,
2013-01-23 03:12:00,68.0,19.0,-100.00,North,357,3.0,9.0,15,0.00,,,0.00,0.000000,,2013-01-23 11:12:00,
2013-01-23 03:22:00,68.0,19.0,-100.00,North,357,3.0,9.0,15,0.00,,,0.00,0.000000,,2013-01-23 11:22:00,
2013-01-23 04:12:00,69.0,19.0,-100.00,NNE,23,4.0,6.0,15,-99.99,,,0.00,0.000000,,2013-01-23 12:12:00,
2013-01-23 04:22:00,69.0,19.0,-100.00,NNE,23,4.0,6.0,15,-99.99,,,0.00,0.000000,,2013-01-23 12:22:00,
2013-01-23 04:51:00,66.0,26.0,-100.00,ENE,70,8.0,10.0,22,-99.99,,,0.00,0.000000,,2013-01-23 12:51:00,
2013-01-23 05:12:00,66.0,26.0,-100.00,ENE,70,8.0,10.0,22,-99.99,,,0.00,0.000000,,2013-01-23 13:12:00,
2013-01-23 05:23:00,66.0,26.0,-100.00,ENE,70,8.0,10.0,22,-99.99,,,0.00,0.000000,,2013-01-23 13:23:00,
2013-01-23 05:42:00,66.0,26.0,-100.00,ENE,70,8.0,10.0,22,-99.99,,,0.00,0.000000,,2013-01-23 13:42:00,
2013-01-23 05:51:00,68.0,30.0,-100.00,ENE,76,6.0,9.0,24,0.00,,,0.00,0.000000,,2013-01-23 13:51:00,
2013-01-23 06:12:00,68.0,30.0,-100.00,ENE,76,6.0,9.0,24,0.00,,,0.00,0.000000,,2013-01-23 14:12:00,
2013-01-23 06:23:00,68.0,30.0,-100.00,ENE,76,6.0,9.0,24,0.00,,,0.00,0.000000,,2013-01-23 14:23:00,
2013-01-23 06:33:00,68.0,30.0,-100.00,ENE,76,6.0,9.0,24,0.00,,,0.00,0.000000,,2013-01-23 14:33:00,
2013-01-23 06:42:00,68.0,30.0,-100.00,ENE,76,6.0,9.0,24,0.00,,,0.00,0.000000,,2013-01-23 14:42:00,
2013-01-23 06:51:00,69.0,31.0,-100.00,ENE,72,4.0,8.0,24,0.00,,,0.00,0.000000,,2013-01-23 14:51:00,
2013-01-23 07:12:00,69.0,31.0,-100.00,ENE,72,4.0,8.0,24,0.00,,,0.00,0.000000,,2013-01-23 15:12:00,
2013-01-23 07:22:00,69.0,31.0,-100.00,ENE,72,4.0,8.0,24,0.00,,,0.00,0.000000,,2013-01-23 15:22:00,
2013-01-23 07:33:00,69.0,31.0,-100.00,ENE,72,4.0,8.0,24,0.00,,,0.00,0.000000,,2013-01-23 15:33:00,
2013-01-23 07:43:00,69.0,31.0,-100.00,ENE,72,4.0,8.0,24,0.00,,,0.00,0.000000,,2013-01-23 15:43:00,
2013-01-23 07:51:00,68.0,33.0,-100.00,ENE,78,7.0,10.0,27,0.00,,,0.00,12.000000,,2013-01-23 15:51:00,
2013-01-23 08:22:00,68.0,33.0,-100.00,ENE,78,7.0,10.0,27,0.00,,,0.00,12.000000,,2013-01-23 16:22:00,
2013-01-23 08:42:00,68.0,33.0,-100.00,ENE,78,7.0,10.0,27,0.00,,,0.00,12.000000,,2013-01-23 16:42:00,
2013-01-23 08:51:00,71.0,36.0,-100.00,ENE,73,7.0,9.0,28,0.00,,,0.00,97.000000,,2013-01-23 16:51:00,
2013-01-23 09:22:00,71.0,36.0,-100.00,ENE,73,7.0,9.0,28,0.00,,,0.00,97.000000,,2013-01-23 17:22:00,
2013-01-23 09:33:00,71.0,36.0,-100.00,ENE,73,7.0,9.0,28,0.00,,,0.00,97.000000,,2013-01-23 17:33:00,
2013-01-23 09:42:00,71.0,36.0,-100.00,ENE,73,7.0,9.0,28,0.00,,,0.00,97.000000,,2013-01-23 17:42:00,
2013-01-23 09:51:00,75.0,36.0,-100.00,East,81,5.0,9.0,24,0.00,,,0.00,252.000000,,2013-01-23 17:51:00,
2013-01-23 10:12:00,75.0,36.0,-100.00,East,81,5.0,9.0,24,0.00,,,0.00,252.000000,,2013-01-23 18:12:00,
2013-01-23 10:23:00,75.0,36.0,-100.00,East,81,5.0,9.0,24,0.00,,,0.00,252.000000,,2013-01-23 18:23:00,
2013-01-23 10:33:00,75.0,36.0,-100.00,East,81,5.0,9.0,24,0.00,,,0.00,252.000000,,2013-01-23 18:33:00,
2013-01-23 10:43:00,75.0,36.0,-100.00,East,81,5.0,9.0,24,0.00,,,0.00,252.000000,,2013-01-23 18:43:00,
2013-01-23 10:51:00,79.0,34.0,-100.00,SSE,158,3.0,12.0,20,0.00,,,0.00,251.000000,,2013-01-23 18:51:00,
2013-01-23 11:13:00,79.0,34.0,-100.00,SSE,158,3.0,12.0,20,0.00,,,0.00,251.000000,,2013-01-23 19:13:00,
2013-01-23 11:22:00,79.0,34.0,-100.00,SSE,158,3.0,12.0,20,0.00,,,0.00,251.000000,,2013-01-23 19:22:00,
2013-01-23 11:33:00,79.0,34.0,-100.00,SSE,158,3.0,12.0,20,0.00,,,0.00,251.000000,,2013-01-23 19:33:00,
2013-01-23 11:42:00,79.0,34.0,-100.00,SSE,158,3.0,12.0,20,0.00,,,0.00,251.000000,,2013-01-23 19:42:00,
2013-01-23 11:51:00,78.0,32.0,-100.00,South,183,6.0,12.0,19,0.00,,,0.00,216.000000,,2013-01-23 19:51:00,
2013-01-23 12:23:00,78.0,32.0,-100.00,South,183,6.0,12.0,19,0.00,,,0.00,216.000000,,2013-01-23 20:23:00,
2013-01-23 12:32:00,78.0,32.0,-100.00,South,183,6.0,12.0,19,0.00,,,0.00,216.000000,,2013-01-23 20:32:00,
2013-01-23 12:42:00,78.0,32.0,-100.00,South,183,6.0,12.0,19,0.00,,,0.00,216.000000,,2013-01-23 20:42:00,
2013-01-23 12:51:00,75.0,31.0,-100.00,SW,222,6.0,18.0,20,0.00,,,0.00,209.000000,,2013-01-23 20:51:00,
2013-01-23 13:12:00,75.0,31.0,-100.00,SW,222,6.0,18.0,20,0.00,,,0.00,209.000000,,2013-01-23 21:12:00,
2013-01-23 13:22:00,75.0,31.0,-100.00,SW,222,6.0,18.0,20,0.00,,,0.00,209.000000,,2013-01-23 21:22:00,
2013-01-23 13:33:00,75.0,31.0,-100.00,SW,222,6.0,18.0,20,0.00,,,0.00,209.000000,,2013-01-23 21:33:00,
2013-01-23 13:42:00,75.0,31.0,-100.00,SW,222,6.0,18.0,20,0.00,,,0.00,209.000000,,2013-01-23 21:42:00,
2013-01-23 13:51:00,73.0,31.0,-100.00,SSW,203,5.0,15.0,21,0.00,,,0.00,255.000000,,2013-01-23 21:51:00,
2013-01-23 14:22:00,73.0,31.0,-100.00,SSW,203,5.0,15.0,21,0.00,,,0.00,255.000000,,2013-01-23 22:22:00,
2013-01-23 14:33:00,73.0,31.0,-100.00,SSW,203,5.0,15.0,21,0.00,,,0.00,255.000000,,2013-01-23 22:33:00,
2013-01-23 14:42:00,73.0,31.0,-100.00,SSW,203,5.0,15.0,21,0.00,,,0.00,255.000000,,2013-01-23 22:42:00,
2013-01-23 14:51:00,74.0,33.0,-100.00,South,180,5.0,10.0,22,0.00,,,0.00,200.000000,,2013-01-23 22:51:00,
2013-01-23 15:12:00,74.0,33.0,-100.00,South,180,5.0,10.0,22,0.00,,,0.00,200.000000,,2013-01-23 23:12:00,
2013-01-23 15:22:00,74.0,33.0,-100.00,South,180,5.0,10.0,22,0.00,,,0.00,200.000000,,2013-01-23 23:22:00,
2013-01-23 15:33:00,74.0,33.0,-100.00,South,180,5.0,10.0,22,0.00,,,0.00,200.000000,,2013-01-23 23:33:00,
2013-01-23 15:42:00,74.0,33.0,-100.00,South,180,5.0,10.0,22,0.00,,,0.00,200.000000,,2013-01-23 23:42:00,
2013-01-23 15:51:00,69.0,27.0,-100.00,SW,218,7.0,15.0,21,0.00,,,0.00,122.000000,,2013-01-23 23:51:00,
2013-01-23 16:12:00,69.0,27.0,-100.00,SW,218,7.0,15.0,21,0.00,,,0.00,122.000000,,2013-01-24 00:12:00,
2013-01-23 16:22:00,69.0,27.0,-100.00,SW,218,7.0,15.0,21,0.00,,,0.00,122.000000,,2013-01-24 00:22:00,
2013-01-23 16:32:00,69.0,27.0,-100.00,SW,218,7.0,15.0,21,0.00,,,0.00,122.000000,,2013-01-24 00:32:00,
2013-01-23 16:42:00,69.0,27.0,-100.00,SW,218,7.0,15.0,21,0.00,,,0.00,122.000000,,2013-01-24 00:42:00,
2013-01-23 16:51:00,66.0,32.0,-100.00,SE,127,3.0,13.0,28,0.00,,,0.00,36.000000,,2013-01-24 00:51:00,
2013-01-23 17:22:00,66.0,32.0,-100.00,SE,127,3.0,13.0,28,0.00,,,0.00,36.000000,,2013-01-24 01:22:00,
2013-01-23 17:33:00,66.0,32.0,-100.00,SE,127,3.0,13.0,28,0.00,,,0.00,36.000000,,2013-01-24 01:33:00,
2013-01-23 17:42:00,66.0,32.0,-100.00,SE,127,3.0,13.0,28,0.00,,,0.00,36.000000,,2013-01-24 01:42:00,
2013-01-23 17:51:00,66.0,29.0,-100.00,ESE,123,5.0,8.0,25,0.00,,,0.00,2.000000,,2013-01-24 01:51:00,
2013-01-23 18:12:00,66.0,29.0,-100.00,ESE,123,5.0,8.0,25,0.00,,,0.00,2.000000,,2013-01-24 02:12:00,
2013-01-23 18:22:00,66.0,29.0,-100.00,ESE,123,5.0,8.0,25,0.00,,,0.00,2.000000,,2013-01-24 02:22:00,
2013-01-23 18:33:00,66.0,29.0,-100.00,ESE,123,5.0,8.0,25,0.00,,,0.00,2.000000,,2013-01-24 02:33:00,
2013-01-23 18:42:00,66.0,29.0,-100.00,ESE,123,5.0,8.0,25,0.00,,,0.00,2.000000,,2013-01-24 02:42:00,
2013-01-23 18:51:00,66.0,27.0,-100.00,SE,132,5.0,11.0,23,0.00,,,0.00,0.000000,,2013-01-24 02:51:00,
2013-01-23 19:12:00,66.0,27.0,-100.00,SE,132,5.0,11.0,23,0.00,,,0.00,0.000000,,2013-01-24 03:12:00,
2013-01-23 19:22:00,66.0,27.0,-100.00,SE,132,5.0,11.0,23,0.00,,,0.00,0.000000,,2013-01-24 03:22:00,
2013-01-23 19:32:00,66.0,27.0,-100.00,SE,132,5.0,11.0,23,0.00,,,0.00,0.000000,,2013-01-24 03:32:00,
2013-01-23 19:42:00,66.0,27.0,-100.00,SE,132,5.0,11.0,23,0.00,,,0.00,0.000000,,2013-01-24 03:42:00,
2013-01-23 19:51:00,64.0,27.0,-100.00,WSW,244,3.0,10.0,25,0.00,,,0.00,0.000000,,2013-01-24 03:51:00,
2013-01-23 20:22:00,64.0,27.0,-100.00,WSW,244,3.0,10.0,25,0.00,,,0.00,0.000000,,2013-01-24 04:22:00,
2013-01-23 20:32:00,64.0,27.0,-100.00,WSW,244,3.0,10.0,25,0.00,,,0.00,0.000000,,2013-01-24 04:32:00,
2013-01-23 20:42:00,64.0,27.0,-100.00,WSW,244,3.0,10.0,25,0.00,,,0.00,0.000000,,2013-01-24 04:42:00,
2013-01-23 20:51:00,61.0,34.0,-100.00,South,181,7.0,11.0,36,0.00,,,0.00,0.000000,,2013-01-24 04:51:00,
2013-01-23 21:22:00,61.0,34.0,-100.00,South,181,7.0,11.0,36,0.00,,,0.00,0.000000,,2013-01-24 05:22:00,
2013-01-23 21:32:00,61.0,34.0,-100.00,South,181,7.0,11.0,36,0.00,,,0.00,0.000000,,2013-01-24 05:32:00,
2013-01-23 21:42:00,61.0,34.0,-100.00,South,181,7.0,11.0,36,0.00,,,0.00,0.000000,,2013-01-24 05:42:00,
2013-01-23 22:51:00,60.0,34.0,-100.00,WSW,237,6.0,7.0,37,-99.99,,,0.00,0.000000,,2013-01-24 06:51:00,
2013-01-23 23:22:00,60.0,34.0,-100.00,WSW,237,6.0,7.0,37,-99.99,,,0.00,0.000000,,2013-01-24 07:22:00,
2013-01-23 23:33:00,60.0,34.0,-100.00,WSW,237,6.0,7.0,37,-99.99,,,0.00,0.000000,,2013-01-24 07:33:00,
2013-01-23 23:42:00,60.0,34.0,-100.00,WSW,237,6.0,7.0,37,-99.99,,,0.00,0.000000,,2013-01-24 07:42:00,
2013-01-23 23:51:00,58.0,39.0,-100.00,NW,317,2.0,8.0,50,0.00,,,0.00,0.000000,,2013-01-24 07:51:00,